Valentine, Texas
Current Conditions -  °F | °C
As of 8:15 AM on Thursday 23 Oct 2014 (Local Time) from KMRF Reporting Station
Overcast Overcast  
Wind Chill: 57°   Ceiling: 400
Heat Index: 57°   Visibility: 7mi
Dew Point: 55°   Wind: 0mph
Humidity: 94%   Direction: NA
Pressure: 30.24"   Gusts: NA
Location:  30.59°N, 104.5°W
Report Text: KMRF 231315Z AUTO 00000KT 7SM OVC004 14/13 A3024 RMK AO1
Loading
Personal Weather Stations






























Interactive Weather Map New forecast layout! Learn more

10-Day Weather Forecast

Advertisements
Track Severe Weather on mobile